Time;durP1;ratioP1;P1;durP2;ratioP2;P2;SDS_P1;SDS_P2;PMS_P1;PMS_P2;Temp;Humidity;BMP_temperature;BMP_pressure;BME280_temperature;BME280_humidity;BME280_pressure;Samples;Min_cycle;Max_cycle;Signal;HPM_P1;HPM_P2
2023/03/27 00:00:41;;;;;;;6.35;1.10;;;;;;;6.10;nan;100311.97;5001573;28;20505;-51
2023/03/27 00:03:09;;;;;;;1.90;0.93;;;;;;;6.12;nan;100298.84;4999569;28;20041;-49
2023/03/27 00:05:35;;;;;;;3.35;1.00;;;;;;;6.06;nan;100298.22;5012092;28;20538;-50
2023/03/27 00:08:01;;;;;;;2.08;0.95;;;;;;;5.97;nan;100309.06;5006364;28;20516;-50
2023/03/27 00:10:27;;;;;;;2.17;0.90;;;;;;;5.92;nan;100316.25;5002929;28;20046;-51
2023/03/27 00:12:56;;;;;;;2.25;0.75;;;;;;;5.89;nan;100311.16;5001550;28;20030;-49
2023/03/27 00:15:21;;;;;;;2.97;0.77;;;;;;;5.83;nan;100321.84;5004787;28;20112;-51
2023/03/27 00:17:50;;;;;;;1.60;0.70;;;;;;;5.77;nan;100325.59;4996695;28;20105;-48
2023/03/27 00:20:21;;;;;;;1.90;0.75;;;;;;;5.73;nan;100317.06;5002041;28;20115;-49
2023/03/27 00:22:48;;;;;;;2.35;0.82;;;;;;;5.65;nan;100319.16;4999065;28;22492;-49
2023/03/27 00:25:15;;;;;;;5.05;1.00;;;;;;;5.59;nan;100327.25;5002202;28;20530;-50
2023/03/27 00:27:42;;;;;;;1.80;0.70;;;;;;;5.51;nan;100330.19;5007296;28;20046;-50
2023/03/27 00:30:09;;;;;;;1.48;0.70;;;;;;;5.45;nan;100331.31;5003861;28;20022;-51
2023/03/27 00:32:35;;;;;;;2.42;0.75;;;;;;;5.49;nan;100338.09;5002266;28;20030;-50
2023/03/27 00:35:03;;;;;;;1.75;0.65;;;;;;;5.47;nan;100333.84;5007874;28;20041;-50
2023/03/27 00:37:29;;;;;;;1.73;0.77;;;;;;;5.43;nan;100358.41;5001393;28;20651;-50
2023/03/27 00:39:55;;;;;;;1.33;0.40;;;;;;;5.43;nan;100351.41;5006156;28;20060;-50
2023/03/27 00:42:22;;;;;;;1.20;0.75;;;;;;;5.38;nan;100355.97;4999053;28;20037;-51
2023/03/27 00:44:50;;;;;;;2.65;0.60;;;;;;;5.30;nan;100363.28;5004225;28;20038;-49
2023/03/27 00:47:19;;;;;;;4.78;1.08;;;;;;;5.25;nan;100366.09;5007896;28;20121;-48
2023/03/27 00:49:48;;;;;;;3.65;0.80;;;;;;;5.18;nan;100369.84;5004168;28;20197;-48
2023/03/27 00:52:15;;;;;;;2.20;0.68;;;;;;;5.14;nan;100358.69;5003140;28;20033;-49
2023/03/27 00:54:42;;;;;;;1.63;0.57;;;;;;;5.12;nan;100355.28;4992925;28;20030;-50
2023/03/27 00:57:13;;;;;;;3.05;0.75;;;;;;;5.06;nan;100355.56;5004800;28;20046;-50
2023/03/27 00:59:42;;;;;;;3.45;1.17;;;;;;;5.02;nan;100359.19;5003879;28;20088;-49
2023/03/27 01:02:08;;;;;;;1.30;0.63;;;;;;;4.98;nan;100358.50;5005581;28;20623;-49
2023/03/27 01:04:35;;;;;;;1.42;0.77;;;;;;;4.91;nan;100356.19;4993508;28;20539;-51
2023/03/27 01:07:04;;;;;;;2.47;0.50;;;;;;;4.86;nan;100362.44;5005208;28;20038;-49
2023/03/27 01:09:30;;;;;;;1.88;0.77;;;;;;;4.85;nan;100388.53;5001311;28;20112;-52
2023/03/27 01:12:07;;;;;;;1.48;0.57;;;;;;;4.79;nan;100371.38;5001021;28;20057;-49
2023/03/27 01:14:32;;;;;;;0.40;0.35;;;;;;;4.73;nan;100374.25;5001231;28;20022;-48
2023/03/27 01:17:16;;;;;;;1.15;0.40;;;;;;;4.67;nan;100380.56;5000987;28;20076;-49
2023/03/27 01:20:29;;;;;;;2.85;0.60;;;;;;;4.68;nan;100370.97;5002394;28;20034;-49
2023/03/27 01:23:26;;;;;;;4.00;1.10;;;;;;;4.63;nan;100383.31;4987439;28;20038;-51
2023/03/27 01:26:38;;;;;;;2.08;0.90;;;;;;;4.57;nan;100387.00;4998312;28;20050;-49
2023/03/27 01:29:34;;;;;;;1.20;0.50;;;;;;;4.60;nan;100389.50;4998762;28;20563;-50
2023/03/27 01:32:20;;;;;;;1.52;0.85;;;;;;;4.57;nan;100384.41;5001047;28;20048;-48
2023/03/27 01:34:56;;;;;;;1.45;0.70;;;;;;;4.60;nan;100394.72;5006014;28;20026;-48
2023/03/27 01:37:37;;;;;;;2.60;0.63;;;;;;;4.59;nan;100395.63;5006718;28;20040;-49
2023/03/27 01:40:06;;;;;;;2.17;0.63;;;;;;;4.60;nan;100399.94;4999480;28;20029;-49
2023/03/27 01:42:49;;;;;;;1.98;0.70;;;;;;;4.60;nan;100389.50;5004673;28;20069;-49
2023/03/27 01:45:36;;;;;;;4.05;0.82;;;;;;;4.60;nan;100404.31;4997033;28;20030;-49
2023/03/27 01:48:17;;;;;;;3.67;1.40;;;;;;;4.62;nan;100410.28;5008541;28;20064;-49
2023/03/27 01:51:13;;;;;;;2.25;1.00;;;;;;;4.68;nan;100426.56;5004499;28;20038;-51
2023/03/27 01:53:45;;;;;;;2.40;0.50;;;;;;;4.69;nan;100407.38;4999027;28;20073;-49
2023/03/27 01:56:25;;;;;;;2.13;0.80;;;;;;;4.67;nan;100417.06;4999891;28;20481;-49
2023/03/27 01:58:58;;;;;;;2.25;0.70;;;;;;;4.62;nan;100412.91;4999632;28;20125;-50
2023/03/27 02:01:30;;;;;;;1.48;0.75;;;;;;;4.57;nan;100416.53;4991945;28;20038;-49
2023/03/27 02:03:58;;;;;;;6.68;1.25;;;;;;;4.55;nan;100423.56;4998451;28;20033;-51
2023/03/27 02:06:30;;;;;;;2.78;0.73;;;;;;;4.54;nan;100421.88;5003984;28;20037;-48
2023/03/27 02:09:03;;;;;;;2.03;0.90;;;;;;;4.55;nan;100418.34;5001501;28;20038;-49
2023/03/27 02:11:34;;;;;;;3.08;1.00;;;;;;;4.58;nan;100420.00;4995591;28;20042;-49
2023/03/27 02:14:04;;;;;;;2.83;0.70;;;;;;;4.56;nan;100424.41;5006277;28;20041;-50
2023/03/27 02:16:35;;;;;;;1.40;0.90;;;;;;;4.58;nan;100435.63;5004079;28;20428;-51
2023/03/27 02:19:07;;;;;;;3.88;0.98;;;;;;;4.64;nan;100442.34;5002800;28;20075;-50
2023/03/27 02:21:32;;;;;;;2.33;1.00;;;;;;;4.66;nan;100445.75;4994280;28;20549;-48
2023/03/27 02:24:00;;;;;;;4.15;0.70;;;;;;;4.68;nan;100450.03;5000273;28;20042;-51
2023/03/27 02:26:29;;;;;;;2.42;1.30;;;;;;;4.72;nan;100456.81;5000900;28;20040;-49
2023/03/27 02:29:29;;;;;;;3.03;1.00;;;;;;;4.71;nan;100455.09;5000526;28;20034;-51
2023/03/27 02:32:00;;;;;;;1.60;0.77;;;;;;;4.70;nan;100449.97;5003318;28;20029;-48
2023/03/27 02:34:25;;;;;;;2.55;1.17;;;;;;;4.77;nan;100445.34;5007376;28;20476;-50
2023/03/27 02:37:00;;;;;;;7.82;1.42;;;;;;;4.71;nan;100449.06;5006967;28;20044;-50
2023/03/27 02:39:53;;;;;;;6.43;1.05;;;;;;;4.62;nan;100459.81;5001336;28;20430;-50
2023/03/27 02:42:39;;;;;;;4.85;1.33;;;;;;;4.53;nan;100453.22;4997122;28;20017;-50
2023/03/27 02:45:15;;;;;;;4.35;1.00;;;;;;;4.51;nan;100458.47;5002692;28;20036;-50
2023/03/27 02:48:07;;;;;;;3.90;0.82;;;;;;;4.46;nan;100452.59;5012797;28;20033;-51
2023/03/27 02:50:41;;;;;;;2.42;0.70;;;;;;;4.42;nan;100456.22;5006911;28;20029;-51
2023/03/27 02:53:10;;;;;;;2.65;0.63;;;;;;;4.38;nan;100458.06;5001823;28;20077;-51
2023/03/27 02:55:47;;;;;;;2.53;1.52;;;;;;;4.39;nan;100471.94;4991724;28;20054;-49
2023/03/27 02:58:20;;;;;;;1.30;0.65;;;;;;;4.38;nan;100478.06;4996741;28;20108;-50
2023/03/27 03:00:49;;;;;;;1.70;0.90;;;;;;;4.37;nan;100478.97;4999346;28;20026;-50
2023/03/27 03:03:56;;;;;;;1.40;0.77;;;;;;;4.32;nan;100480.88;5006253;28;20065;-51
2023/03/27 03:06:29;;;;;;;4.15;1.08;;;;;;;4.33;nan;100485.19;4991447;28;20045;-50
2023/03/27 03:09:04;;;;;;;4.68;1.42;;;;;;;4.33;nan;100487.78;4997694;28;20030;-48
2023/03/27 03:11:32;;;;;;;3.17;0.80;;;;;;;4.31;nan;100490.44;5006886;28;20075;-48
2023/03/27 03:13:57;;;;;;;4.03;0.85;;;;;;;4.36;nan;100498.09;5003773;28;20041;-49
2023/03/27 03:16:23;;;;;;;5.63;0.98;;;;;;;4.45;nan;100505.59;5008447;28;20030;-49
2023/03/27 03:18:49;;;;;;;2.45;0.70;;;;;;;4.53;nan;100502.72;5002192;28;20173;-48
2023/03/27 03:21:15;;;;;;;5.45;1.17;;;;;;;4.58;nan;100508.59;5008356;28;20100;-52
2023/03/27 03:23:41;;;;;;;2.97;1.13;;;;;;;4.55;nan;100512.16;4991930;28;20070;-50
2023/03/27 03:26:07;;;;;;;1.55;0.50;;;;;;;4.51;nan;100515.78;5001258;28;20064;-50
2023/03/27 03:28:39;;;;;;;1.58;0.70;;;;;;;4.48;nan;100512.44;5000065;28;20485;-50
2023/03/27 03:31:05;;;;;;;;;;;;;;;4.39;nan;100514.47;5003478;28;20035;-48
2023/03/27 03:33:30;;;;;;;3.50;0.98;;;;;;;4.35;nan;100507.69;4997796;28;19959;-50
2023/03/27 03:36:00;;;;;;;3.75;1.10;;;;;;;4.33;nan;100526.84;5005149;28;20025;-50
2023/03/27 03:38:30;;;;;;;1.73;0.75;;;;;;;4.27;nan;100536.59;4997463;28;20043;-50
2023/03/27 03:40:57;;;;;;;3.70;1.00;;;;;;;4.25;nan;100534.94;5001351;28;20121;-50
2023/03/27 03:43:26;;;;;;;1.65;1.00;;;;;;;4.24;nan;100534.09;5002163;28;20424;-48
2023/03/27 03:45:52;;;;;;;5.05;1.00;;;;;;;4.19;nan;100536.00;5002830;28;20042;-48
2023/03/27 03:48:19;;;;;;;1.70;0.80;;;;;;;4.16;nan;100538.72;4999395;28;20428;-49
2023/03/27 03:50:46;;;;;;;3.17;1.20;;;;;;;4.16;nan;100536.09;4994645;28;20120;-49
2023/03/27 03:53:13;;;;;;;2.47;0.95;;;;;;;4.11;nan;100535.44;5002234;28;20567;-50
2023/03/27 03:55:38;;;;;;;2.88;0.90;;;;;;;4.08;nan;100538.13;4998679;28;20121;-50
2023/03/27 03:58:04;;;;;;;3.78;0.90;;;;;;;4.07;nan;100545.09;4999728;28;20100;-48
2023/03/27 04:00:33;;;;;;;2.60;0.70;;;;;;;4.01;nan;100542.69;4998206;28;20041;-50
2023/03/27 04:02:59;;;;;;;2.88;0.98;;;;;;;4.02;nan;100553.94;4997858;28;20022;-49
2023/03/27 04:05:25;;;;;;;2.03;0.70;;;;;;;3.96;nan;100558.47;4994527;28;20030;-51
2023/03/27 04:07:50;;;;;;;1.23;1.05;;;;;;;3.92;nan;100553.44;4996911;28;20037;-48
2023/03/27 04:10:16;;;;;;;2.15;0.90;;;;;;;3.89;nan;100558.72;5006244;28;20036;-48
2023/03/27 04:12:48;;;;;;;1.70;0.60;;;;;;;3.84;nan;100556.28;5005395;28;20115;-49
2023/03/27 04:15:15;;;;;;;3.80;0.90;;;;;;;3.81;nan;100557.22;4997124;28;20045;-49
2023/03/27 04:17:41;;;;;;;4.40;0.95;;;;;;;3.83;nan;100564.13;4998641;28;20116;-49
2023/03/27 04:20:07;;;;;;;2.60;1.08;;;;;;;3.84;nan;100566.69;4999263;28;20118;-48
2023/03/27 04:22:36;;;;;;;3.38;1.20;;;;;;;3.86;nan;100577.03;5004105;28;20530;-50
2023/03/27 04:25:04;;;;;;;2.05;1.05;;;;;;;3.80;nan;100567.69;5003055;28;20038;-49
2023/03/27 04:27:30;;;;;;;4.45;0.90;;;;;;;3.78;nan;100579.91;5001432;28;20101;-49
2023/03/27 04:29:55;;;;;;;1.25;0.70;;;;;;;3.73;nan;100582.66;5006041;28;20030;-50
2023/03/27 04:32:20;;;;;;;1.42;0.90;;;;;;;3.66;nan;100589.81;4986811;28;20025;-47
2023/03/27 04:34:49;;;;;;;1.48;0.80;;;;;;;3.62;nan;100590.78;5001668;28;20040;-49
2023/03/27 04:37:15;;;;;;;2.72;1.00;;;;;;;3.59;nan;100596.09;4998362;28;20026;-50
2023/03/27 04:39:45;;;;;;;1.58;0.60;;;;;;;3.54;nan;100598.00;4994725;28;20128;-49
2023/03/27 04:42:12;;;;;;;1.60;0.70;;;;;;;3.47;nan;100605.13;4985088;28;20029;-49
2023/03/27 04:44:39;;;;;;;2.00;0.80;;;;;;;3.50;nan;100619.78;4994859;28;20498;-51
2023/03/27 04:47:05;;;;;;;1.55;0.68;;;;;;;3.40;nan;100608.81;5004529;28;20541;-49
2023/03/27 04:49:38;;;;;;;2.08;0.70;;;;;;;3.39;nan;100606.25;5003752;28;20030;-50
2023/03/27 04:52:06;;;;;;;;;;;;;;;3.37;nan;100603.69;4997615;28;20030;-48
2023/03/27 04:54:33;;;;;;;1.98;0.60;;;;;;;3.37;nan;100608.91;4992520;28;19922;-49
2023/03/27 04:57:00;;;;;;;3.35;0.85;;;;;;;3.37;nan;100608.91;5005496;28;20477;-49
2023/03/27 04:59:30;;;;;;;1.70;0.80;;;;;;;3.33;nan;100608.13;5006011;28;20029;-49
2023/03/27 05:01:57;;;;;;;2.75;1.10;;;;;;;3.34;nan;100615.06;5004128;28;20034;-48
2023/03/27 05:04:26;;;;;;;6.88;1.95;;;;;;;3.39;nan;100619.28;5001001;28;20053;-49
2023/03/27 05:06:52;;;;;;;8.13;1.38;;;;;;;3.43;nan;100621.72;4998370;28;20022;-49
2023/03/27 05:09:19;;;;;;;2.60;0.95;;;;;;;3.40;nan;100629.63;5001041;28;20501;-50
2023/03/27 05:11:48;;;;;;;9.55;1.38;;;;;;;3.35;nan;100627.16;4995530;28;20045;-50
2023/03/27 05:14:18;;;;;;;2.03;0.77;;;;;;;3.27;nan;100634.31;5007162;28;20084;-49
2023/03/27 05:16:43;;;;;;;1.55;0.60;;;;;;;3.28;nan;100628.22;5007512;28;20423;-48
2023/03/27 05:19:10;;;;;;;3.17;0.98;;;;;;;3.25;nan;100636.13;5009987;28;20022;-50
2023/03/27 05:21:36;;;;;;;2.13;0.80;;;;;;;3.20;nan;100638.84;5014103;28;20030;-50
2023/03/27 05:24:01;;;;;;;2.97;1.38;;;;;;;3.24;nan;100649.16;5009218;28;20052;-48
2023/03/27 05:26:27;;;;;;;1.75;0.95;;;;;;;3.26;nan;100657.78;5006000;28;20477;-50
2023/03/27 05:28:54;;;;;;;3.17;1.13;;;;;;;3.24;nan;100670.84;5001983;28;20069;-50
2023/03/27 05:31:21;;;;;;;2.78;0.88;;;;;;;3.24;nan;100681.25;5004875;28;20049;-50
2023/03/27 05:33:47;;;;;;;2.45;0.73;;;;;;;3.26;nan;100669.03;5004294;28;20053;-48
2023/03/27 05:36:14;;;;;;;2.03;0.90;;;;;;;3.22;nan;100675.22;5001789;28;20668;-50
2023/03/27 05:38:40;;;;;;;1.92;0.90;;;;;;;3.25;nan;100682.94;5005027;28;20037;-50
2023/03/27 05:41:06;;;;;;;1.77;0.90;;;;;;;3.26;nan;100684.63;5008349;28;20046;-50
2023/03/27 05:43:31;;;;;;;4.13;0.82;;;;;;;3.29;nan;100687.16;5010407;28;20152;-48
2023/03/27 05:45:57;;;;;;;7.45;1.23;;;;;;;3.34;nan;100690.47;5004785;28;20125;-51
2023/03/27 05:48:22;;;;;;;3.22;1.40;;;;;;;3.37;nan;100701.69;5009514;28;20038;-50
2023/03/27 05:50:48;;;;;;;2.60;1.00;;;;;;;3.41;nan;100711.09;5002034;28;20095;-50
2023/03/27 05:53:14;;;;;;;2.05;0.80;;;;;;;3.39;nan;100710.31;5008701;28;20374;-47
2023/03/27 05:55:40;;;;;;;1.38;0.55;;;;;;;3.38;nan;100713.81;5010092;28;20385;-50
2023/03/27 05:58:08;;;;;;;2.13;0.90;;;;;;;3.38;nan;100708.59;5012621;28;20032;-48
2023/03/27 06:00:35;;;;;;;3.38;1.00;;;;;;;3.42;nan;100718.88;5001083;28;20031;-50
2023/03/27 06:03:02;;;;;;;2.08;0.88;;;;;;;3.46;nan;100712.69;5006759;28;20033;-49
2023/03/27 06:05:28;;;;;;;1.83;1.00;;;;;;;3.47;nan;100713.53;5002548;28;20026;-50
2023/03/27 06:07:57;;;;;;;2.85;0.98;;;;;;;3.47;nan;100714.41;5003542;28;20018;-51
2023/03/27 06:10:25;;;;;;;2.00;1.00;;;;;;;3.48;nan;100716.06;5013603;28;20091;-50
2023/03/27 06:13:03;;;;;;;2.15;0.80;;;;;;;3.54;nan;100719.41;5007474;28;20036;-50
2023/03/27 06:15:30;;;;;;;2.97;0.95;;;;;;;3.59;nan;100720.97;5010681;28;20017;-48
2023/03/27 06:17:55;;;;;;;1.67;0.73;;;;;;;3.63;nan;100730.41;5006325;28;20053;-49
2023/03/27 06:20:23;;;;;;;2.20;1.00;;;;;;;3.70;nan;100730.25;5004446;28;20167;-50
2023/03/27 06:22:50;;;;;;;3.28;1.20;;;;;;;3.75;nan;100728.34;5007997;28;20042;-50
2023/03/27 06:25:17;;;;;;;2.00;0.70;;;;;;;3.81;nan;100736.81;5010342;28;20128;-51
2023/03/27 06:27:47;;;;;;;2.08;0.80;;;;;;;3.89;nan;100743.56;5008893;28;20486;-51
2023/03/27 06:30:16;;;;;;;2.95;0.75;;;;;;;3.93;nan;100743.41;5006754;28;20071;-50
2023/03/27 06:32:58;;;;;;;2.70;0.80;;;;;;;3.94;nan;100750.34;5000904;28;20396;-50
2023/03/27 06:35:25;;;;;;;;;;;;;;;3.97;nan;100771.06;5008264;28;20100;-48
2023/03/27 06:37:51;;;;;;;2.17;0.90;;;;;;;3.93;nan;100772.06;5002470;28;19913;-48
2023/03/27 06:40:22;;;;;;;2.17;0.80;;;;;;;3.96;nan;100761.56;5006024;28;20488;-51
2023/03/27 06:42:58;;;;;;;3.67;0.95;;;;;;;3.99;nan;100772.78;5004131;28;20041;-49
2023/03/27 06:45:27;;;;;;;0.98;0.50;;;;;;;3.99;nan;100778.00;5003189;28;20076;-48
2023/03/27 06:47:54;;;;;;;0.93;0.60;;;;;;;4.03;nan;100774.38;5005002;28;20041;-49
2023/03/27 06:50:21;;;;;;;4.88;1.08;;;;;;;4.08;nan;100767.28;5005149;28;20060;-48
2023/03/27 06:52:47;;;;;;;1.63;0.90;;;;;;;4.12;nan;100772.34;5001975;28;20396;-48
2023/03/27 06:55:14;;;;;;;1.92;0.90;;;;;;;4.18;nan;100789.53;5002471;28;20022;-49
2023/03/27 06:57:45;;;;;;;2.22;1.27;;;;;;;4.18;nan;100778.28;5012495;28;20032;-50
2023/03/27 07:00:11;;;;;;;1.48;0.82;;;;;;;4.19;nan;100772.19;5011750;28;20050;-50
2023/03/27 07:02:38;;;;;;;1.33;0.70;;;;;;;4.22;nan;100780.75;5010845;28;20079;-50
2023/03/27 07:05:06;;;;;;;2.72;1.02;;;;;;;4.27;nan;100794.50;5004178;28;20091;-50
2023/03/27 07:07:31;;;;;;;2.20;0.70;;;;;;;4.34;nan;100783.84;5005431;28;20029;-49
2023/03/27 07:09:57;;;;;;;2.80;0.98;;;;;;;4.41;nan;100778.41;5011640;28;20026;-50
2023/03/27 07:12:23;;;;;;;2.15;0.82;;;;;;;4.46;nan;100793.06;5007417;28;20164;-49
2023/03/27 07:14:48;;;;;;;4.18;0.65;;;;;;;4.43;nan;100799.22;5005273;28;20108;-49
2023/03/27 07:17:14;;;;;;;1.70;0.90;;;;;;;4.46;nan;100793.94;5004460;28;20417;-50
2023/03/27 07:19:39;;;;;;;3.47;0.73;;;;;;;4.50;nan;100799.88;5000885;28;20488;-50
2023/03/27 07:22:05;;;;;;;2.33;0.90;;;;;;;4.50;nan;100810.31;5000740;28;20034;-51
2023/03/27 07:24:30;;;;;;;5.72;0.93;;;;;;;4.48;nan;100812.94;5010200;28;20376;-48
2023/03/27 07:26:56;;;;;;;1.42;0.70;;;;;;;4.47;nan;100813.84;5005137;28;20412;-50
2023/03/27 07:29:21;;;;;;;0.95;0.80;;;;;;;4.49;nan;100817.25;5009788;28;20388;-49
2023/03/27 07:31:47;;;;;;;2.35;0.73;;;;;;;4.53;nan;100813.66;5010648;28;20116;-49
2023/03/27 07:34:12;;;;;;;2.88;0.82;;;;;;;4.55;nan;100858.78;5007483;28;20044;-49
2023/03/27 07:36:37;;;;;;;1.23;0.55;;;;;;;4.49;nan;100830.28;5005621;28;20496;-49
2023/03/27 07:39:03;;;;;;;1.45;0.85;;;;;;;4.47;nan;100828.63;5010741;28;20037;-47
2023/03/27 07:41:31;;;;;;;1.65;0.77;;;;;;;4.60;nan;100826.50;5002219;28;20026;-48
2023/03/27 07:43:57;;;;;;;3.03;1.20;;;;;;;4.62;nan;100828.16;5013303;28;20038;-48
2023/03/27 07:46:22;;;;;;;4.28;0.73;;;;;;;4.61;nan;100839.47;5008850;28;20036;-50
2023/03/27 07:48:49;;;;;;;2.42;0.70;;;;;;;4.51;nan;100848.50;5007407;28;20087;-48
2023/03/27 07:51:16;;;;;;;1.52;0.68;;;;;;;4.52;nan;100837.19;5007563;28;20121;-49
2023/03/27 07:53:42;;;;;;;3.38;0.90;;;;;;;4.62;nan;100835.09;5011659;28;20041;-48
2023/03/27 07:56:09;;;;;;;2.35;1.20;;;;;;;4.67;nan;100854.94;5005184;28;20407;-49
2023/03/27 07:58:35;;;;;;;0.57;0.50;;;;;;;4.51;nan;100844.13;5009451;28;20112;-49
2023/03/27 08:01:02;;;;;;;1.92;0.90;;;;;;;4.55;nan;100835.31;5007796;28;20042;-48
2023/03/27 08:03:29;;;;;;;2.10;0.80;;;;;;;4.54;nan;100858.81;5004727;28;20073;-49
2023/03/27 08:05:57;;;;;;;1.70;0.65;;;;;;;4.57;nan;100848.28;5007747;28;20026;-49
2023/03/27 08:08:23;;;;;;;1.73;1.23;;;;;;;4.69;nan;100858.34;4999623;28;20076;-49
2023/03/27 08:10:49;;;;;;;1.92;0.80;;;;;;;4.78;nan;100856.34;5007824;28;20961;-49
2023/03/27 08:13:15;;;;;;;3.67;1.00;;;;;;;4.77;nan;100871.13;5020880;28;20030;-49
2023/03/27 08:15:41;;;;;;;2.03;0.90;;;;;;;4.85;nan;100861.31;5001423;28;20044;-49
2023/03/27 08:18:07;;;;;;;2.28;0.85;;;;;;;4.83;nan;100870.94;5009937;28;20066;-48
2023/03/27 08:20:33;;;;;;;1.17;0.75;;;;;;;4.75;nan;100872.94;5008651;28;20413;-49
2023/03/27 08:22:59;;;;;;;1.50;0.68;;;;;;;4.73;nan;100866.94;5009144;28;20025;-48
2023/03/27 08:25:26;;;;;;;0.77;0.52;;;;;;;4.74;nan;100860.81;5005496;28;20029;-48
2023/03/27 08:27:52;;;;;;;4.93;0.80;;;;;;;4.78;nan;100862.41;5008584;28;20030;-48
2023/03/27 08:30:19;;;;;;;2.92;1.08;;;;;;;4.79;nan;100871.09;5013811;28;20121;-49
2023/03/27 08:32:45;;;;;;;3.20;0.93;;;;;;;4.75;nan;100878.16;5010637;28;20064;-49
2023/03/27 08:35:11;;;;;;;4.03;0.82;;;;;;;4.76;nan;100869.44;5011606;28;20034;-49
2023/03/27 08:37:37;;;;;;;1.40;0.73;;;;;;;4.83;nan;100881.38;5007006;28;20021;-48
2023/03/27 08:40:07;;;;;;;1.38;1.00;;;;;;;4.97;nan;100906.16;5010038;28;20105;-50
2023/03/27 08:42:37;;;;;;;1.52;0.65;;;;;;;5.03;nan;100926.84;5011228;28;20026;-48
2023/03/27 08:45:26;;;;;;;2.15;0.88;;;;;;;4.99;nan;100891.31;5006870;28;20036;-48
2023/03/27 08:48:11;;;;;;;4.15;0.95;;;;;;;4.92;nan;100892.41;5006940;28;20108;-48
2023/03/27 08:50:45;;;;;;;1.48;0.63;;;;;;;4.91;nan;100901.16;5005501;28;20560;-48
2023/03/27 08:53:21;;;;;;;1.58;0.90;;;;;;;4.99;nan;100896.53;5004531;28;20576;-47
2023/03/27 08:55:48;;;;;;;1.90;0.70;;;;;;;5.02;nan;100893.84;5006736;28;20034;-51
2023/03/27 08:58:20;;;;;;;9.00;0.65;;;;;;;4.95;nan;100900.13;5009885;28;20026;-48
2023/03/27 09:00:55;;;;;;;2.00;1.20;;;;;;;4.85;nan;100921.28;5007287;28;20105;-48
2023/03/27 09:03:41;;;;;;;2.15;0.85;;;;;;;4.86;nan;100904.75;5007048;28;20025;-49
2023/03/27 09:06:24;;;;;;;2.58;0.82;;;;;;;4.85;nan;100900.44;5009611;28;20048;-47
2023/03/27 09:09:14;;;;;;;2.10;0.90;;;;;;;4.92;nan;100910.66;5011573;28;20040;-47
2023/03/27 09:12:12;;;;;;;1.83;1.00;;;;;;;4.99;nan;100943.47;5009394;28;20056;-49
2023/03/27 09:15:03;;;;;;;1.83;1.13;;;;;;;4.94;nan;100909.72;5009653;28;20077;-47
2023/03/27 09:17:38;;;;;;;2.65;0.80;;;;;;;4.79;nan;100910.19;5003837;28;20060;-47
2023/03/27 09:20:16;;;;;;;2.78;0.55;;;;;;;4.87;nan;100918.63;5007232;28;20512;-48
2023/03/27 09:22:52;;;;;;;1.98;0.70;;;;;;;4.92;nan;100919.34;5004319;28;20042;-49
2023/03/27 09:25:44;;;;;;;4.63;0.63;;;;;;;4.98;nan;100929.59;5007571;28;20511;-48
2023/03/27 09:28:22;;;;;;;5.63;2.15;;;;;;;4.92;nan;100903.69;5005364;28;20045;-48
2023/03/27 09:30:48;;;;;;;2.55;0.70;;;;;;;5.02;nan;100927.75;5003332;28;20084;-49
2023/03/27 09:33:14;;;;;;;2.33;0.70;;;;;;;5.11;nan;100919.59;5005451;28;20504;-48
2023/03/27 09:35:41;;;;;;;1.70;0.77;;;;;;;5.19;nan;100935.88;5007359;28;20037;-48
2023/03/27 09:38:21;;;;;;;4.20;0.75;;;;;;;5.23;nan;100970.53;5009316;28;20488;-49
2023/03/27 09:40:53;;;;;;;2.30;0.75;;;;;;;5.25;nan;100940.06;5004501;28;20045;-49
2023/03/27 09:43:27;;;;;;;1.88;0.65;;;;;;;5.21;nan;100927.16;5000802;28;20041;-48
2023/03/27 09:45:54;;;;;;;4.97;1.00;;;;;;;5.21;nan;100945.41;4998475;28;20340;-49
2023/03/27 09:48:33;;;;;;;1.88;0.88;;;;;;;5.14;nan;100958.66;5002205;28;20447;-48
2023/03/27 09:50:58;;;;;;;1.80;0.82;;;;;;;5.19;nan;100975.03;5004699;28;20030;-47
2023/03/27 09:53:26;;;;;;;1.83;0.80;;;;;;;5.25;nan;100957.44;5006484;28;20123;-51
2023/03/27 09:55:57;;;;;;;2.10;0.90;;;;;;;5.37;nan;100967.47;5004412;28;20037;-48
2023/03/27 09:58:33;;;;;;;2.67;1.00;;;;;;;5.43;nan;100962.06;5004129;28;20060;-48
2023/03/27 10:01:05;;;;;;;4.63;2.10;;;;;;;5.58;nan;100967.69;5000966;28;20516;-48
2023/03/27 10:03:37;;;;;;;4.13;0.98;;;;;;;5.63;nan;100978.84;5004474;28;20080;-47
2023/03/27 10:06:08;;;;;;;1.67;0.93;;;;;;;5.68;nan;100969.06;5003381;28;20763;-48
2023/03/27 10:08:45;;;;;;;1.98;1.23;;;;;;;5.75;nan;100970.59;5003174;28;20104;-47
2023/03/27 10:11:18;;;;;;;1.73;0.93;;;;;;;5.64;nan;100975.31;5001561;28;20104;-49
2023/03/27 10:13:49;;;;;;;0.93;0.63;;;;;;;5.59;nan;100974.63;5008067;28;20083;-48
2023/03/27 10:16:17;;;;;;;1.90;0.77;;;;;;;5.63;nan;100964.00;5000347;28;20117;-48
2023/03/27 10:18:46;;;;;;;3.53;0.70;;;;;;;5.63;nan;100973.63;5008160;28;20052;-48
2023/03/27 10:21:32;;;;;;;3.75;0.82;;;;;;;5.66;nan;100978.75;5005347;28;21040;-48
2023/03/27 10:24:03;;;;;;;2.75;1.00;;;;;;;5.79;nan;100984.38;5000742;28;20168;-48
2023/03/27 10:26:31;;;;;;;4.47;0.95;;;;;;;5.80;nan;100983.50;5003806;28;20034;-47
2023/03/27 10:29:17;;;;;;;1.98;0.80;;;;;;;5.79;nan;100987.88;5001208;28;20418;-48
2023/03/27 10:31:50;;;;;;;1.63;0.90;;;;;;;5.82;nan;100993.91;4998237;28;20164;-48
2023/03/27 10:34:36;;;;;;;2.40;1.13;;;;;;;5.87;nan;100992.84;4996199;28;20457;-48
2023/03/27 10:37:18;;;;;;;4.35;1.05;;;;;;;5.92;nan;101003.13;5003865;28;20104;-48
2023/03/27 10:39:44;;;;;;;4.35;0.57;;;;;;;5.73;nan;101013.34;5003932;28;20030;-50
2023/03/27 10:42:13;;;;;;;2.85;1.15;;;;;;;5.69;nan;101007.34;5005780;28;20034;-48
2023/03/27 10:44:40;;;;;;;2.10;0.73;;;;;;;5.74;nan;101000.22;5004528;28;20440;-49
2023/03/27 10:47:17;;;;;;;2.17;0.70;;;;;;;5.85;nan;101006.81;5006079;28;20084;-48
2023/03/27 10:49:52;;;;;;;1.42;0.70;;;;;;;5.91;nan;101012.69;5002802;28;20497;-50
2023/03/27 10:52:37;;;;;;;2.03;0.82;;;;;;;5.83;nan;101025.19;5002642;28;20076;-49
2023/03/27 10:55:32;;;;;;;1.67;1.15;;;;;;;5.99;nan;101001.16;4999771;28;20127;-50
2023/03/27 10:58:19;;;;;;;3.58;0.80;;;;;;;6.04;nan;101007.13;5003685;28;20037;-51
2023/03/27 11:00:52;;;;;;;1.20;0.73;;;;;;;6.08;nan;101029.59;5006037;28;20053;-49
2023/03/27 11:03:36;;;;;;;;;;;;;;;6.15;nan;101018.03;5004971;28;20026;-51
2023/03/27 11:06:06;;;;;;;1.00;0.50;;;;;;;6.27;nan;101008.06;4998172;28;20076;-50
2023/03/27 11:08:43;;;;;;;0.90;0.60;;;;;;;6.40;nan;101014.53;5003904;28;20026;-47
2023/03/27 11:11:24;;;;;;;1.05;0.70;;;;;;;6.34;nan;101026.06;4997849;28;20038;-49
2023/03/27 11:13:50;;;;;;;1.25;0.63;;;;;;;6.35;nan;101033.00;4999168;28;20128;-50
2023/03/27 11:16:33;;;;;;;2.83;1.13;;;;;;;6.33;nan;101008.69;5002247;28;20105;-49
2023/03/27 11:19:11;;;;;;;1.30;0.63;;;;;;;6.32;nan;101016.59;5003108;28;21189;-52
2023/03/27 11:21:46;;;;;;;4.13;0.93;;;;;;;6.34;nan;101025.22;5000451;28;20066;-47
2023/03/27 11:24:37;;;;;;;2.50;1.33;;;;;;;6.49;nan;101023.81;5000650;28;20049;-48
2023/03/27 11:27:13;;;;;;;1.35;0.70;;;;;;;6.53;nan;101022.81;5004281;28;20036;-46
2023/03/27 11:29:47;;;;;;;4.10;1.08;;;;;;;6.48;nan;101027.34;5007614;28;20555;-49
2023/03/27 11:32:32;;;;;;;0.65;0.40;;;;;;;6.50;nan;101025.53;4997119;28;20029;-48
2023/03/27 11:35:05;;;;;;;1.83;0.80;;;;;;;6.68;nan;101031.84;5000666;28;20047;-48
2023/03/27 11:37:47;;;;;;;2.83;1.65;;;;;;;6.81;nan;101029.63;5005193;28;20053;-51
2023/03/27 11:40:23;;;;;;;3.33;1.10;;;;;;;6.89;nan;101026.72;5002307;28;20038;-53
2023/03/27 11:42:49;;;;;;;1.23;0.95;;;;;;;6.90;nan;101057.22;5001210;28;20589;-49
2023/03/27 11:45:21;;;;;;;0.93;0.47;;;;;;;6.95;nan;101039.59;5002144;28;20030;-49
2023/03/27 11:48:05;;;;;;;0.80;0.60;;;;;;;6.86;nan;101038.16;5009194;28;20053;-48
2023/03/27 11:50:51;;;;;;;3.17;1.38;;;;;;;6.93;nan;101044.03;5002298;28;20034;-49
2023/03/27 11:53:23;;;;;;;2.33;0.73;;;;;;;6.94;nan;101045.72;5005553;28;20022;-48
2023/03/27 11:56:08;;;;;;;2.25;1.00;;;;;;;6.86;nan;101046.03;5007600;28;20424;-49
2023/03/27 11:58:43;;;;;;;2.42;0.90;;;;;;;6.93;nan;101049.25;5002934;28;20037;-49
2023/03/27 12:01:12;;;;;;;4.32;0.98;;;;;;;7.01;nan;101042.81;5002002;28;20033;-55
2023/03/27 12:04:07;;;;;;;1.75;1.38;;;;;;;6.99;nan;101060.34;4995300;28;20053;-49
2023/03/27 12:07:04;;;;;;;2.25;0.98;;;;;;;6.83;nan;101041.72;4991876;28;20091;-48
2023/03/27 12:09:55;;;;;;;1.10;0.68;;;;;;;6.80;nan;101043.63;4954598;28;20041;-49
2023/03/27 12:12:56;;;;;;;2.22;0.70;;;;;;;6.95;nan;101056.13;4981395;28;20034;-50